createdAt,value
2022-08-11T00:00:55.081Z,17.95
2022-08-11T00:01:55.076Z,17.95
2022-08-11T00:02:55.130Z,18.00
2022-08-11T00:03:55.071Z,17.98
2022-08-11T00:04:55.072Z,18.03
2022-08-11T00:05:55.068Z,17.92
2022-08-11T00:06:55.064Z,17.95
2022-08-11T00:07:55.065Z,17.95
2022-08-11T00:08:55.057Z,17.85
2022-08-11T00:09:55.053Z,17.80
2022-08-11T00:10:55.054Z,17.86
2022-08-11T00:11:58.409Z,17.78
2022-08-11T00:12:55.047Z,17.79
2022-08-11T00:13:55.043Z,17.76
2022-08-11T00:14:55.045Z,17.70
2022-08-11T00:15:55.039Z,17.70
2022-08-11T00:16:55.036Z,17.59
2022-08-11T00:17:55.033Z,17.64
2022-08-11T00:18:55.034Z,17.63
2022-08-11T00:20:13.866Z,17.67
2022-08-11T00:20:55.023Z,17.57
2022-08-11T00:22:04.707Z,17.72
2022-08-11T00:22:55.020Z,17.63
2022-08-11T00:23:55.016Z,17.60
2022-08-11T00:24:58.581Z,17.56
2022-08-11T00:25:55.010Z,17.52
2022-08-11T00:26:55.009Z,17.51
2022-08-11T00:27:55.244Z,17.51
2022-08-11T00:28:55.002Z,17.48
2022-08-11T00:29:55.005Z,17.48
2022-08-11T00:30:54.995Z,17.56
2022-08-11T00:31:54.997Z,17.51
2022-08-11T00:32:54.993Z,17.48
2022-08-11T00:33:54.990Z,17.44
2022-08-11T00:35:53.752Z,17.45
2022-08-11T00:35:57.647Z,17.44
2022-08-11T00:36:54.982Z,17.45
2022-08-11T00:37:54.977Z,17.36
2022-08-11T00:38:54.972Z,17.36
2022-08-11T00:39:55.013Z,17.34
2022-08-11T00:40:54.970Z,17.31
2022-08-11T00:41:56.899Z,17.29
2022-08-11T00:42:54.962Z,17.27
2022-08-11T00:43:54.957Z,17.29
2022-08-11T00:44:54.955Z,17.31
2022-08-11T00:45:54.952Z,17.20
2022-08-11T00:46:54.951Z,17.20
2022-08-11T00:47:54.954Z,17.12
2022-08-11T00:48:54.944Z,17.09
2022-08-11T00:49:54.939Z,17.12
2022-08-11T00:50:54.936Z,17.16
2022-08-11T00:52:04.515Z,17.12
2022-08-11T00:52:54.930Z,17.11
2022-08-11T00:53:54.928Z,17.06
2022-08-11T00:54:54.924Z,17.02
2022-08-11T00:55:55.766Z,16.99
2022-08-11T00:56:54.921Z,17.04
2022-08-11T00:57:54.913Z,16.97
2022-08-11T00:58:54.913Z,17.01
2022-08-11T00:59:54.911Z,16.91
2022-08-11T01:00:54.933Z,16.93
2022-08-11T01:01:54.901Z,16.91
2022-08-11T01:02:54.900Z,16.93
2022-08-11T01:03:54.899Z,16.86
2022-08-11T01:04:55.873Z,16.86
2022-08-11T01:05:54.891Z,16.86
2022-08-11T01:06:54.888Z,16.78
2022-08-11T01:08:02.766Z,16.84
2022-08-11T01:08:54.881Z,16.78
2022-08-11T01:09:54.880Z,16.71
2022-08-11T01:10:54.875Z,16.83
2022-08-11T01:11:55.727Z,16.76
2022-08-11T01:12:54.872Z,16.72
2022-08-11T01:13:54.865Z,16.71
2022-08-11T01:14:54.864Z,16.69
2022-08-11T01:15:57.426Z,16.64
2022-08-11T01:16:54.857Z,16.71
2022-08-11T01:17:54.853Z,16.58
2022-08-11T01:18:54.850Z,16.64
2022-08-11T01:20:44.846Z,16.60
2022-08-11T01:20:54.847Z,16.56
2022-08-11T01:23:26.666Z,16.43
2022-08-11T01:24:26.490Z,16.49
2022-08-11T01:26:30.478Z,16.50
2022-08-11T01:27:30.463Z,16.53
2022-08-11T01:29:23.385Z,16.50
2022-08-11T01:30:23.368Z,16.60
2022-08-11T01:32:27.358Z,16.50
2022-08-11T01:33:27.352Z,16.42
2022-08-11T01:35:31.322Z,16.49
2022-08-11T01:36:31.313Z,16.42
2022-08-11T01:38:35.301Z,16.38
2022-08-11T01:39:35.339Z,16.47
2022-08-11T01:41:39.274Z,16.50
2022-08-11T01:42:39.478Z,16.36
2022-08-11T01:44:43.250Z,16.41
2022-08-11T01:45:43.230Z,16.39
2022-08-11T01:47:53.263Z,16.35
2022-08-11T01:48:47.203Z,16.39
2022-08-11T01:50:08.647Z,16.36
2022-08-11T01:50:47.192Z,16.33
2022-08-11T01:51:47.192Z,16.35
2022-08-11T01:52:47.189Z,16.32
2022-08-11T01:53:47.183Z,16.35
2022-08-11T01:54:47.178Z,16.36
2022-08-11T01:55:47.177Z,16.36
2022-08-11T01:56:47.172Z,16.35
2022-08-11T01:57:47.167Z,16.26
2022-08-11T01:58:47.169Z,16.24
2022-08-11T01:59:47.168Z,16.21
2022-08-11T02:00:47.179Z,16.29
2022-08-11T02:01:47.156Z,16.42
2022-08-11T02:02:47.151Z,16.41
2022-08-11T02:03:47.146Z,16.42
2022-08-11T02:04:47.158Z,16.46
2022-08-11T02:05:47.141Z,16.38
2022-08-11T02:06:47.138Z,16.43
2022-08-11T02:07:47.134Z,16.47
2022-08-11T02:08:49.528Z,16.47
2022-08-11T02:09:49.611Z,16.33
2022-08-11T02:10:50.780Z,16.33
2022-08-11T02:11:47.123Z,16.28
2022-08-11T02:12:52.419Z,16.24
2022-08-11T02:13:47.343Z,16.26
2022-08-11T02:14:53.633Z,16.29
2022-08-11T02:15:47.100Z,16.26
2022-08-11T02:16:47.100Z,16.15
2022-08-11T02:17:47.094Z,16.26
2022-08-11T02:18:47.101Z,16.16
2022-08-11T02:19:47.087Z,16.20
2022-08-11T02:20:47.084Z,16.08
2022-08-11T02:21:47.078Z,16.12
2022-08-11T02:22:47.078Z,16.08
2022-08-11T02:24:04.441Z,16.04
2022-08-11T02:24:47.068Z,16.04
2022-08-11T02:25:47.068Z,15.98
2022-08-11T02:26:47.060Z,15.97
2022-08-11T02:27:47.059Z,16.01
2022-08-11T02:28:47.053Z,15.95
2022-08-11T02:29:47.048Z,15.95
2022-08-11T02:30:47.043Z,15.94
2022-08-11T02:32:15.625Z,15.88
2022-08-11T02:32:47.043Z,15.91
2022-08-11T02:33:47.033Z,15.94
2022-08-11T02:34:59.286Z,15.83
2022-08-11T02:35:47.025Z,15.84
2022-08-11T02:36:47.023Z,15.76
2022-08-11T02:37:47.018Z,15.76
2022-08-11T02:38:47.011Z,15.73
2022-08-11T02:39:47.041Z,15.73
2022-08-11T02:40:47.006Z,15.76
2022-08-11T02:41:47.000Z,15.70
2022-08-11T02:42:47.370Z,15.57
2022-08-11T02:43:50.974Z,15.62
2022-08-11T02:44:46.989Z,15.64
2022-08-11T02:45:46.984Z,15.68
2022-08-11T02:46:46.982Z,15.65
2022-08-11T02:47:46.977Z,15.58
2022-08-11T02:48:46.972Z,15.58
2022-08-11T02:49:46.965Z,15.61
2022-08-11T02:50:46.963Z,15.58
2022-08-11T02:51:46.961Z,15.51
2022-08-11T02:52:46.953Z,15.52
2022-08-11T02:53:50.989Z,15.52
2022-08-11T02:54:46.947Z,15.57
2022-08-11T02:55:57.304Z,15.59
2022-08-11T02:56:46.939Z,15.54
2022-08-11T02:57:46.936Z,15.57
2022-08-11T02:58:46.931Z,15.51
2022-08-11T02:59:46.928Z,15.54
2022-08-11T03:00:46.924Z,15.52
2022-08-11T03:01:47.145Z,15.46
2022-08-11T03:02:46.919Z,15.43
2022-08-11T03:03:46.911Z,15.47
2022-08-11T03:04:46.910Z,15.46
2022-08-11T03:05:46.904Z,15.37
2022-08-11T03:06:46.898Z,15.37
2022-08-11T03:07:46.902Z,15.37
2022-08-11T03:08:46.891Z,15.49
2022-08-11T03:09:46.885Z,15.42
2022-08-11T03:10:46.882Z,15.40
2022-08-11T03:11:46.879Z,15.43
2022-08-11T03:12:50.340Z,15.28
2022-08-11T03:13:46.870Z,15.31
2022-08-11T03:14:46.868Z,15.28
2022-08-11T03:15:46.865Z,15.29
2022-08-11T03:16:46.873Z,15.40
2022-08-11T03:17:46.851Z,15.24
2022-08-11T03:18:46.848Z,15.29
2022-08-11T03:19:46.847Z,15.28
2022-08-11T03:20:46.840Z,15.28
2022-08-11T03:22:02.336Z,15.29
2022-08-11T03:22:46.833Z,15.25
2022-08-11T03:23:46.829Z,15.24
2022-08-11T03:24:46.825Z,15.24
2022-08-11T03:25:46.823Z,15.22
2022-08-11T03:26:46.810Z,15.15
2022-08-11T03:27:46.813Z,15.19
2022-08-11T03:28:46.809Z,15.19
2022-08-11T03:29:46.802Z,15.22
2022-08-11T03:30:46.796Z,15.14
2022-08-11T03:31:46.796Z,15.17
2022-08-11T03:32:46.795Z,15.10
2022-08-11T03:33:46.786Z,15.21
2022-08-11T03:34:46.783Z,15.04
2022-08-11T03:35:46.777Z,15.14
2022-08-11T03:37:15.186Z,15.18
2022-08-11T03:37:46.772Z,15.11
2022-08-11T03:38:46.762Z,15.14
2022-08-11T03:39:52.707Z,15.21
2022-08-11T03:40:46.758Z,15.19
2022-08-11T03:42:02.591Z,15.17
2022-08-11T03:42:46.746Z,15.25
2022-08-11T03:43:58.442Z,15.17
2022-08-11T03:44:46.740Z,15.22
2022-08-11T03:45:46.734Z,15.25
2022-08-11T03:46:46.730Z,15.24
2022-08-11T03:47:52.561Z,15.25
2022-08-11T03:48:46.722Z,15.18
2022-08-11T03:49:46.719Z,15.21
2022-08-11T03:50:46.712Z,15.17
2022-08-11T03:51:51.771Z,15.17
2022-08-11T03:52:46.759Z,15.21
2022-08-11T03:53:46.700Z,15.17
2022-08-11T03:54:46.694Z,15.17
2022-08-11T03:55:46.692Z,15.17
2022-08-11T03:56:46.688Z,15.15
2022-08-11T03:57:46.684Z,15.14
2022-08-11T03:58:46.682Z,15.15
2022-08-11T03:59:46.673Z,15.19
2022-08-11T04:00:46.688Z,15.19
2022-08-11T04:01:46.727Z,15.18
2022-08-11T04:02:46.663Z,15.11
2022-08-11T04:03:46.659Z,15.11
2022-08-11T04:04:50.562Z,15.24
2022-08-11T04:05:46.648Z,15.14
2022-08-11T04:06:46.649Z,15.14
2022-08-11T04:07:46.643Z,15.21
2022-08-11T04:08:46.637Z,15.17
2022-08-11T04:09:46.760Z,15.19
2022-08-11T04:10:46.630Z,15.28
2022-08-11T04:11:46.622Z,15.28
2022-08-11T04:12:47.912Z,15.31
2022-08-11T04:13:46.614Z,15.27
2022-08-11T04:14:46.610Z,15.27
2022-08-11T04:15:46.608Z,15.39
2022-08-11T04:16:46.605Z,15.40
2022-08-11T04:17:46.595Z,15.42
2022-08-11T04:18:46.594Z,15.36
2022-08-11T04:19:46.590Z,15.40
2022-08-11T04:20:46.585Z,15.43
2022-08-11T04:21:46.581Z,15.49
2022-08-11T04:22:46.579Z,15.54
2022-08-11T04:24:36.254Z,15.55
2022-08-11T04:24:50.316Z,15.59
2022-08-11T04:25:57.908Z,15.64
2022-08-11T04:26:46.559Z,15.76
2022-08-11T04:27:47.801Z,15.64
2022-08-11T04:28:50.362Z,15.75
2022-08-11T04:30:01.893Z,15.80
2022-08-11T04:30:46.544Z,15.77
2022-08-11T04:31:51.517Z,15.67
2022-08-11T04:32:46.536Z,15.73
2022-08-11T04:33:46.537Z,15.79
2022-08-11T04:34:46.530Z,15.83
2022-08-11T04:35:50.921Z,15.82
2022-08-11T04:36:46.523Z,15.95
2022-08-11T04:37:53.357Z,15.88
2022-08-11T04:38:46.531Z,16.02
2022-08-11T04:39:46.552Z,16.00
2022-08-11T04:40:46.504Z,16.04
2022-08-11T04:41:46.501Z,16.02
2022-08-11T04:42:46.493Z,16.15
2022-08-11T04:44:02.657Z,16.12
2022-08-11T04:44:46.486Z,16.28
2022-08-11T04:45:46.482Z,16.31
2022-08-11T04:46:46.478Z,16.39
2022-08-11T04:48:04.428Z,16.49
2022-08-11T04:48:46.470Z,16.43
2022-08-11T04:49:46.480Z,16.68
2022-08-11T04:51:00.683Z,16.86
2022-08-11T04:51:46.462Z,16.96
2022-08-11T04:52:46.455Z,17.34
2022-08-11T04:53:46.448Z,17.83
2022-08-11T04:54:46.448Z,18.00
2022-08-11T04:55:46.445Z,18.29
2022-08-11T04:56:46.470Z,18.65
2022-08-11T04:57:46.435Z,18.93
2022-08-11T04:58:46.494Z,19.00
2022-08-11T04:59:46.430Z,19.24
2022-08-11T05:00:46.423Z,19.63
2022-08-11T05:01:46.472Z,19.81
2022-08-11T05:02:46.418Z,20.11
2022-08-11T05:03:46.416Z,20.22
2022-08-11T05:04:46.413Z,20.51
2022-08-11T05:05:56.218Z,20.75
2022-08-11T05:06:46.412Z,21.29
2022-08-11T05:07:46.406Z,21.37
2022-08-11T05:08:46.396Z,21.72
2022-08-11T05:09:46.393Z,22.08
2022-08-11T05:10:46.399Z,22.08
2022-08-11T05:11:46.396Z,22.10
2022-08-11T05:12:46.388Z,21.58
2022-08-11T05:13:46.389Z,21.35
2022-08-11T05:14:46.390Z,21.42
2022-08-11T05:15:50.959Z,21.00
2022-08-11T05:16:46.386Z,20.78
2022-08-11T05:17:46.381Z,20.75
2022-08-11T05:18:46.457Z,20.80
2022-08-11T05:19:46.376Z,21.06
2022-08-11T05:20:46.369Z,21.15
2022-08-11T05:21:46.394Z,21.30
2022-08-11T05:22:46.366Z,21.27
2022-08-11T05:23:46.360Z,21.32
2022-08-11T05:24:46.361Z,20.85
2022-08-11T05:26:44.689Z,20.62
2022-08-11T05:26:49.371Z,20.82
2022-08-11T05:27:46.355Z,21.20
2022-08-11T05:28:46.372Z,21.40
2022-08-11T05:29:46.347Z,21.58
2022-08-11T05:30:46.350Z,21.51
2022-08-11T05:31:46.345Z,21.76
2022-08-11T05:32:46.345Z,22.00
2022-08-11T05:33:46.341Z,21.95
2022-08-11T05:34:46.342Z,22.11
2022-08-11T05:36:00.080Z,22.14
2022-08-11T05:36:46.341Z,22.26
2022-08-11T05:37:46.336Z,22.25
2022-08-11T05:38:46.332Z,21.92
2022-08-11T05:39:46.358Z,21.88
2022-08-11T05:40:51.444Z,21.99
2022-08-11T05:41:46.330Z,21.83
2022-08-11T05:42:46.329Z,22.14
2022-08-11T05:44:21.174Z,22.63
2022-08-11T05:44:46.327Z,22.70
2022-08-11T05:46:02.393Z,22.85
2022-08-11T05:46:46.327Z,22.81
2022-08-11T05:47:46.322Z,22.44
2022-08-11T05:48:46.323Z,22.17
2022-08-11T05:49:46.320Z,22.48
2022-08-11T05:50:46.322Z,22.91
2022-08-11T05:51:55.249Z,23.09
2022-08-11T05:52:46.400Z,23.25
2022-08-11T05:53:46.647Z,23.12
2022-08-11T05:54:46.842Z,23.25
2022-08-11T05:56:01.861Z,23.47
2022-08-11T05:56:46.315Z,23.43
2022-08-11T05:57:51.213Z,23.34
2022-08-11T05:58:46.312Z,23.81
2022-08-11T05:59:46.314Z,24.42
2022-08-11T06:00:46.313Z,24.60
2022-08-11T06:01:46.349Z,25.11
2022-08-11T06:02:46.315Z,25.54
2022-08-11T06:03:58.072Z,25.23
2022-08-11T06:04:46.374Z,24.84
2022-08-11T06:05:46.315Z,24.38
2022-08-11T06:06:47.112Z,23.84
2022-08-11T06:07:48.705Z,23.91
2022-08-11T06:08:46.321Z,24.26
2022-08-11T06:09:46.315Z,24.23
2022-08-11T06:10:46.313Z,24.28
2022-08-11T06:11:46.313Z,24.32
2022-08-11T06:12:46.320Z,24.30
2022-08-11T06:13:46.316Z,24.45
2022-08-11T06:14:46.314Z,24.84
2022-08-11T06:15:46.317Z,25.17
2022-08-11T06:16:46.316Z,25.60
2022-08-11T06:17:46.317Z,25.68
2022-08-11T06:18:46.318Z,25.91
2022-08-11T06:19:46.330Z,25.96
2022-08-11T06:20:46.321Z,25.46
2022-08-11T06:21:46.336Z,24.85
2022-08-11T06:22:49.729Z,24.42
2022-08-11T06:23:46.333Z,24.23
2022-08-11T06:24:46.325Z,24.39
2022-08-11T06:25:46.327Z,24.51
2022-08-11T06:27:10.797Z,24.57
2022-08-11T06:27:46.326Z,24.77
2022-08-11T06:28:46.328Z,25.32
2022-08-11T06:29:47.804Z,25.78
2022-08-11T06:30:46.331Z,26.03
2022-08-11T06:31:46.349Z,26.37
2022-08-11T06:32:46.334Z,27.07
2022-08-11T06:33:46.335Z,27.75
2022-08-11T06:34:46.336Z,28.10
2022-08-11T06:35:46.340Z,27.87
2022-08-11T06:36:46.341Z,27.75
2022-08-11T06:37:46.345Z,27.92
2022-08-11T06:38:46.344Z,28.30
2022-08-11T06:39:46.390Z,28.94
2022-08-11T06:40:46.351Z,29.14
2022-08-11T06:41:46.359Z,29.17
2022-08-11T06:42:46.358Z,29.53
2022-08-11T06:43:55.588Z,29.95
2022-08-11T06:44:46.356Z,29.41
2022-08-11T06:45:46.360Z,28.67
2022-08-11T06:46:46.365Z,28.82
2022-08-11T06:47:46.370Z,29.42
2022-08-11T06:48:46.372Z,29.72
2022-08-11T06:49:46.378Z,29.91
2022-08-11T06:50:46.379Z,29.98
2022-08-11T06:51:46.384Z,30.18
2022-08-11T06:52:46.588Z,30.51
2022-08-11T06:54:03.527Z,30.88
2022-08-11T06:54:46.393Z,31.31
2022-08-11T06:55:55.582Z,31.71
2022-08-11T06:56:46.400Z,32.21
2022-08-11T06:57:46.401Z,31.22
2022-08-11T06:58:46.406Z,31.20
2022-08-11T06:59:46.410Z,31.56
2022-08-11T07:00:46.415Z,32.04
2022-08-11T07:01:47.659Z,32.43
2022-08-11T07:02:46.420Z,31.74
2022-08-11T07:03:46.453Z,31.42
2022-08-11T07:04:46.433Z,31.59
2022-08-11T07:05:46.433Z,32.00
2022-08-11T07:06:50.721Z,32.26
2022-08-11T07:07:46.446Z,32.65
2022-08-11T07:08:46.447Z,32.48
2022-08-11T07:09:46.447Z,32.51
2022-08-11T07:10:46.461Z,32.85
2022-08-11T07:11:46.467Z,33.20
2022-08-11T07:12:46.466Z,33.08
2022-08-11T07:13:46.468Z,32.33
2022-08-11T07:14:46.474Z,32.30
2022-08-11T07:16:09.006Z,32.40
2022-08-11T07:16:46.483Z,32.53
2022-08-11T07:17:46.489Z,32.96
2022-08-11T07:18:46.496Z,33.32
2022-08-11T07:19:46.501Z,33.73
2022-08-11T07:20:46.503Z,33.45
2022-08-11T07:22:01.950Z,33.73
2022-08-11T07:22:46.515Z,34.08
2022-08-11T07:23:46.521Z,34.33
2022-08-11T07:25:02.008Z,34.74
2022-08-11T07:25:46.536Z,34.78
2022-08-11T07:26:46.537Z,35.12
2022-08-11T07:27:46.544Z,35.33
2022-08-11T07:28:46.567Z,34.99
2022-08-11T07:29:46.554Z,34.33
2022-08-11T07:30:46.560Z,33.73
2022-08-11T07:31:46.567Z,32.56
2022-08-11T07:32:46.571Z,31.80
2022-08-11T07:34:07.243Z,31.77
2022-08-11T07:34:46.591Z,31.51
2022-08-11T07:35:46.590Z,31.59
2022-08-11T07:36:46.597Z,32.11
2022-08-11T07:37:46.646Z,32.70
2022-08-11T07:38:47.495Z,33.22
2022-08-11T07:39:46.644Z,33.79
2022-08-11T07:40:46.621Z,33.73
2022-08-11T07:41:46.639Z,33.42
2022-08-11T07:42:46.636Z,33.24
2022-08-11T07:43:46.636Z,32.74
2022-08-11T07:44:46.647Z,32.22
2022-08-11T07:45:46.649Z,32.55
2022-08-11T07:46:46.659Z,33.19
2022-08-11T07:47:46.671Z,33.76
2022-08-11T07:48:46.673Z,34.38
2022-08-11T07:49:46.677Z,34.95
2022-08-11T07:50:46.689Z,35.58
2022-08-11T07:51:46.688Z,35.66
2022-08-11T07:52:46.696Z,35.76
2022-08-11T07:53:58.814Z,35.56
2022-08-11T07:54:51.247Z,35.70
2022-08-11T07:55:51.195Z,35.48
2022-08-11T07:56:55.576Z,35.70
2022-08-11T07:58:16.053Z,35.71
2022-08-11T07:58:53.155Z,35.44
2022-08-11T08:00:00.063Z,35.42
2022-08-11T08:00:47.118Z,35.64
2022-08-11T08:01:46.812Z,35.71
2022-08-11T08:02:46.768Z,35.93
2022-08-11T08:03:54.188Z,36.12
2022-08-11T08:04:47.438Z,36.21
2022-08-11T08:05:46.784Z,35.82
2022-08-11T08:06:46.791Z,35.19
2022-08-11T08:07:46.797Z,34.50
2022-08-11T08:08:46.811Z,34.47
2022-08-11T08:09:46.810Z,34.71
2022-08-11T08:10:46.820Z,34.81
2022-08-11T08:11:46.826Z,34.88
2022-08-11T08:12:46.834Z,34.77
2022-08-11T08:13:46.839Z,34.18
2022-08-11T08:14:46.845Z,32.60
2022-08-11T08:15:46.859Z,31.74
2022-08-11T08:16:46.866Z,31.31
2022-08-11T08:18:09.138Z,31.05
2022-08-11T08:18:46.876Z,31.39
2022-08-11T08:19:46.878Z,31.92
2022-08-11T08:20:46.899Z,32.74
2022-08-11T08:21:46.895Z,33.36
2022-08-11T08:22:48.697Z,33.15
2022-08-11T08:23:46.908Z,32.34
2022-08-11T08:24:46.912Z,31.97
2022-08-11T08:25:46.927Z,31.56
2022-08-11T08:26:51.347Z,31.33
2022-08-11T08:27:46.927Z,31.18
2022-08-11T08:28:46.936Z,30.72
2022-08-11T08:29:46.940Z,30.68
2022-08-11T08:30:46.943Z,30.83
2022-08-11T08:31:46.951Z,30.88
2022-08-11T08:32:46.950Z,30.88
2022-08-11T08:33:46.969Z,30.35
2022-08-11T08:34:46.966Z,29.90
2022-08-11T08:35:54.522Z,29.78
2022-08-11T08:36:46.978Z,29.57
2022-08-11T08:37:47.878Z,29.08
2022-08-11T08:38:46.995Z,28.81
2022-08-11T08:39:47.038Z,28.64
2022-08-11T08:40:46.991Z,28.52
2022-08-11T08:41:46.996Z,28.45
2022-08-11T08:42:47.224Z,28.48
2022-08-11T08:43:48.463Z,28.20
2022-08-11T08:44:47.014Z,27.60
2022-08-11T08:45:47.006Z,27.42
2022-08-11T08:46:47.012Z,27.36
2022-08-11T08:47:49.897Z,27.35
2022-08-11T08:48:47.018Z,27.39
2022-08-11T08:49:47.022Z,27.25
2022-08-11T08:50:47.168Z,27.15
2022-08-11T08:51:58.668Z,27.17
2022-08-11T08:52:47.184Z,27.22
2022-08-11T08:53:52.642Z,27.30
2022-08-11T08:54:47.037Z,27.40
2022-08-11T08:55:47.047Z,27.42
2022-08-11T08:56:47.047Z,27.40
2022-08-11T08:57:47.049Z,27.49
2022-08-11T08:58:47.058Z,27.58
2022-08-11T08:59:48.680Z,27.55
2022-08-11T09:00:47.058Z,27.55
2022-08-11T09:01:47.126Z,27.49
2022-08-11T09:02:47.253Z,27.51
2022-08-11T09:04:05.030Z,27.67
2022-08-11T09:04:47.071Z,27.58
2022-08-11T09:05:47.068Z,27.64
2022-08-11T09:06:50.038Z,27.48
2022-08-11T09:07:47.079Z,27.51
2022-08-11T09:08:47.079Z,27.37
2022-08-11T09:09:47.084Z,27.14
2022-08-11T09:10:47.086Z,27.05
2022-08-11T09:11:47.088Z,27.17
2022-08-11T09:12:47.281Z,27.17
2022-08-11T09:13:47.089Z,27.05
2022-08-11T09:14:47.095Z,26.60
2022-08-11T09:15:47.097Z,26.55
2022-08-11T09:16:47.097Z,26.53
2022-08-11T09:17:47.100Z,26.56
2022-08-11T09:18:47.113Z,26.66
2022-08-11T09:19:52.201Z,26.78
2022-08-11T09:20:47.112Z,26.84
2022-08-11T09:21:48.810Z,26.89
2022-08-11T09:22:47.110Z,26.81
2022-08-11T09:24:22.107Z,26.60
2022-08-11T09:24:47.118Z,26.55
2022-08-11T09:25:47.124Z,26.62
2022-08-11T09:26:47.121Z,26.73
2022-08-11T09:27:50.535Z,26.77
2022-08-11T09:28:47.126Z,26.85
2022-08-11T09:29:47.129Z,27.02
2022-08-11T09:30:47.130Z,27.10
2022-08-11T09:31:47.142Z,27.15
2022-08-11T09:32:47.130Z,27.27
2022-08-11T09:33:47.138Z,27.26
2022-08-11T09:34:47.193Z,27.37
2022-08-11T09:35:47.138Z,27.29
2022-08-11T09:36:47.142Z,26.93
2022-08-11T09:37:55.253Z,26.80
2022-08-11T09:38:49.602Z,26.85
2022-08-11T09:39:47.202Z,26.85
2022-08-11T09:40:47.156Z,26.92
2022-08-11T09:42:01.705Z,26.93
2022-08-11T09:42:47.153Z,26.90
2022-08-11T09:43:47.165Z,26.88
2022-08-11T09:44:47.163Z,26.90
2022-08-11T09:45:47.163Z,26.90
2022-08-11T09:46:47.162Z,26.89
2022-08-11T09:47:47.160Z,26.97
2022-08-11T09:48:47.166Z,27.03
2022-08-11T09:49:47.170Z,27.20
2022-08-11T09:50:47.171Z,27.21
2022-08-11T09:51:59.752Z,27.35
2022-08-11T09:53:03.826Z,27.48
2022-08-11T09:54:03.674Z,27.44
2022-08-11T09:54:48.302Z,27.51
2022-08-11T09:55:47.177Z,27.49
2022-08-11T09:56:47.179Z,27.63
2022-08-11T09:57:47.189Z,27.77
2022-08-11T09:58:47.184Z,27.80
2022-08-11T09:59:47.187Z,27.64
2022-08-11T10:00:47.231Z,27.48
2022-08-11T10:01:47.534Z,27.58
2022-08-11T10:02:47.210Z,27.64
2022-08-11T10:03:47.200Z,27.75
2022-08-11T10:04:47.196Z,27.77
2022-08-11T10:05:47.199Z,27.90
2022-08-11T10:06:47.523Z,27.98
2022-08-11T10:07:47.203Z,28.02
2022-08-11T10:08:47.205Z,27.98
2022-08-11T10:09:47.207Z,27.82
2022-08-11T10:10:47.209Z,27.73
2022-08-11T10:11:55.507Z,27.87
2022-08-11T10:12:47.215Z,27.95
2022-08-11T10:14:33.486Z,28.05
2022-08-11T10:14:47.294Z,28.07
2022-08-11T10:15:59.806Z,28.05
2022-08-11T10:16:47.222Z,28.00
2022-08-11T10:17:47.225Z,28.05
2022-08-11T10:18:47.228Z,28.20
2022-08-11T10:20:01.996Z,28.17
2022-08-11T10:20:47.234Z,28.27
2022-08-11T10:21:47.234Z,28.37
2022-08-11T10:22:47.245Z,28.25
2022-08-11T10:24:00.490Z,28.19
2022-08-11T10:24:47.240Z,28.00
2022-08-11T10:25:47.243Z,28.07
2022-08-11T10:26:47.247Z,28.01
2022-08-11T10:28:30.677Z,28.08
2022-08-11T10:29:11.675Z,28.10
2022-08-11T10:29:49.997Z,28.07
2022-08-11T10:30:47.254Z,28.19
2022-08-11T10:31:57.829Z,28.07
2022-08-11T10:32:58.798Z,27.87
2022-08-11T10:33:59.343Z,27.98
2022-08-11T10:34:49.635Z,28.14
2022-08-11T10:35:47.263Z,28.14
2022-08-11T10:36:47.266Z,28.25
2022-08-11T10:38:06.550Z,28.35
2022-08-11T10:38:47.273Z,28.41
2022-08-11T10:39:47.323Z,28.44
2022-08-11T10:40:47.276Z,28.41
2022-08-11T10:42:06.517Z,28.14
2022-08-11T10:42:57.882Z,28.22
2022-08-11T10:44:02.537Z,28.05
2022-08-11T10:44:47.288Z,27.80
2022-08-11T10:45:47.288Z,27.63
2022-08-11T10:46:47.289Z,27.63
2022-08-11T10:47:49.066Z,27.77
2022-08-11T10:48:47.302Z,27.86
2022-08-11T10:49:47.346Z,28.12
2022-08-11T10:50:47.298Z,28.19
2022-08-11T10:51:51.051Z,28.20
2022-08-11T10:52:47.304Z,28.42
2022-08-11T10:53:47.305Z,28.57
2022-08-11T10:54:47.311Z,28.64
2022-08-11T10:55:47.338Z,28.74
2022-08-11T10:56:47.313Z,28.64
2022-08-11T10:58:04.687Z,28.64
2022-08-11T10:58:47.315Z,28.86
2022-08-11T10:59:47.319Z,28.84
2022-08-11T11:00:47.376Z,28.96
2022-08-11T11:01:47.324Z,29.07
2022-08-11T11:03:23.112Z,29.19
2022-08-11T11:03:47.334Z,29.17
2022-08-11T11:04:50.745Z,29.23
2022-08-11T11:06:12.896Z,28.97
2022-08-11T11:06:47.337Z,28.88
2022-08-11T11:07:47.341Z,28.96
2022-08-11T11:09:47.345Z,28.79
2022-08-11T11:10:47.349Z,28.85
2022-08-11T11:11:47.355Z,28.75
2022-08-11T11:12:47.352Z,28.78
2022-08-11T11:13:55.186Z,28.82
2022-08-11T11:14:49.871Z,28.78
2022-08-11T11:15:48.315Z,28.81
2022-08-11T11:16:47.362Z,28.75
2022-08-11T11:17:47.364Z,28.70
2022-08-11T11:18:47.375Z,28.60
2022-08-11T11:19:47.373Z,28.67
2022-08-11T11:20:48.026Z,28.75
2022-08-11T11:21:47.374Z,28.62
2022-08-11T11:22:47.376Z,28.82
2022-08-11T11:23:47.448Z,28.85
2022-08-11T11:24:47.400Z,28.84
2022-08-11T11:25:47.382Z,28.93
2022-08-11T11:26:47.385Z,29.01
2022-08-11T11:27:47.392Z,29.14
2022-08-11T11:28:47.412Z,29.19
2022-08-11T11:29:47.414Z,29.19
2022-08-11T11:30:47.399Z,29.36
2022-08-11T11:31:47.401Z,29.20
2022-08-11T11:32:49.713Z,29.44
2022-08-11T11:34:06.787Z,29.36
2022-08-11T11:34:53.260Z,29.51
2022-08-11T11:35:47.414Z,29.51
2022-08-11T11:36:47.413Z,29.45
2022-08-11T11:37:56.121Z,29.56
2022-08-11T11:38:47.420Z,29.59
2022-08-11T11:39:47.454Z,29.57
2022-08-11T11:40:47.427Z,29.66
2022-08-11T11:41:47.427Z,29.65
2022-08-11T11:42:47.432Z,29.61
2022-08-11T11:43:47.431Z,29.47
2022-08-11T11:44:47.434Z,29.39
2022-08-11T11:45:47.437Z,29.23
2022-08-11T11:46:47.440Z,29.24
2022-08-11T11:47:47.446Z,29.20
2022-08-11T11:48:47.444Z,29.19
2022-08-11T11:49:47.448Z,29.29
2022-08-11T11:50:47.450Z,29.41
2022-08-11T11:51:47.464Z,29.08
2022-08-11T11:52:47.465Z,29.16
2022-08-11T11:53:47.461Z,29.17
2022-08-11T11:54:47.463Z,29.12
2022-08-11T11:55:47.464Z,29.13
2022-08-11T11:56:47.470Z,29.29
2022-08-11T11:57:59.081Z,29.32
2022-08-11T11:58:47.476Z,29.13
2022-08-11T11:59:47.473Z,29.10
2022-08-11T12:00:47.481Z,29.19
2022-08-11T12:01:50.405Z,29.19
2022-08-11T12:02:47.487Z,28.79
2022-08-11T12:03:47.491Z,28.69
2022-08-11T12:04:47.497Z,28.86
2022-08-11T12:05:47.494Z,28.98
2022-08-11T12:06:47.491Z,29.10
2022-08-11T12:07:47.499Z,29.17
2022-08-11T12:08:47.499Z,29.34
2022-08-11T12:09:47.504Z,29.32
2022-08-11T12:10:47.506Z,29.31
2022-08-11T12:11:47.510Z,29.38
2022-08-11T12:12:47.513Z,29.42
2022-08-11T12:13:47.516Z,29.63
2022-08-11T12:14:47.516Z,29.61
2022-08-11T12:16:31.000Z,29.56
2022-08-11T12:16:47.525Z,29.53
2022-08-11T12:17:52.360Z,29.50
2022-08-11T12:18:47.531Z,29.56
2022-08-11T12:19:48.482Z,29.60
2022-08-11T12:20:47.537Z,29.60
2022-08-11T12:21:50.955Z,29.69
2022-08-11T12:22:47.541Z,29.63
2022-08-11T12:23:47.544Z,29.59
2022-08-11T12:24:47.551Z,29.65
2022-08-11T12:25:52.513Z,29.66
2022-08-11T12:26:47.554Z,29.73
2022-08-11T12:27:47.556Z,29.86
2022-08-11T12:28:47.559Z,29.76
2022-08-11T12:29:52.810Z,29.81
2022-08-11T12:30:49.574Z,29.66
2022-08-11T12:31:47.566Z,29.50
2022-08-11T12:32:47.567Z,29.44
2022-08-11T12:33:47.571Z,29.45
2022-08-11T12:34:47.575Z,29.24
2022-08-11T12:36:00.340Z,29.20
2022-08-11T12:36:47.580Z,29.31
2022-08-11T12:37:47.582Z,29.27
2022-08-11T12:38:51.261Z,29.47
2022-08-11T12:40:16.286Z,29.42
2022-08-11T12:41:15.921Z,29.38
2022-08-11T12:41:47.643Z,29.42
2022-08-11T12:42:47.599Z,29.47
2022-08-11T12:43:57.103Z,29.50
2022-08-11T12:44:47.604Z,29.66
2022-08-11T12:45:47.607Z,29.72
2022-08-11T12:46:47.608Z,29.61
2022-08-11T12:48:07.746Z,29.45
2022-08-11T12:49:00.846Z,29.45
2022-08-11T12:49:47.614Z,29.49
2022-08-11T12:50:47.620Z,29.51
2022-08-11T12:52:11.654Z,29.63
2022-08-11T12:52:47.627Z,29.68
2022-08-11T12:53:47.634Z,29.72
2022-08-11T12:54:47.627Z,29.65
2022-08-11T12:56:04.087Z,29.68
2022-08-11T12:56:47.636Z,29.63
2022-08-11T12:57:47.866Z,29.59
2022-08-11T12:58:47.643Z,29.42
2022-08-11T12:59:47.648Z,29.44
2022-08-11T13:00:47.743Z,29.38
2022-08-11T13:01:47.653Z,29.35
2022-08-11T13:02:47.656Z,29.38
2022-08-11T13:03:52.074Z,29.39